Terminal Aerodrome Forecast
Issued by NWS

Home | Current Version | Previous Version | Graphics & Text | Print | Product List | Glossary On
Versions: 1 2 3 4 5 6 7 8 9 10 11 12 13 14 15 16 17
235
FTUS42 KMHX 181120
TAFPGV
TAF
KPGV 181120Z 1812/1912 VRB04KT 6SM -SHRA VCTS SCT015CB OVC050
     FM181600 20005KT P6SM VCTS BKN045CB
     FM182200 18006KT P6SM BKN070
      AMD LTD TO CLD VIS AND WIND=

USA.gov is the U.S. government's official web portal to all federal, state and local government web resources and services.